Thunder radar more information blitzortung!


Löydät sääaseman tiedot myös:

European Weather Network

Finland Weather Exchange

Weather Underground

AWEKAS



Weather Underground säähistoriasivu

Päivittäin yhteenveto Helmikuu 21, 2017 Yksiköt:  Metriset    Englantilaiset   Molemmat
« Edellinen Päivä
Seuraava Päivä »
Päivittäin Viikoittain Kuukausittain Vuosittain Mukautettu
  Korkea: Matala: Keskiarvo:
Lämpötila: -17.8 °C -23.5 °C -20.9 °C
Kastepiste: -17.8 °C -24.2 °C -21.8 °C
Kosteus: Humidity % 74 % 88 %
Tuulen nopeus: 0 km/h 0 km/h 0.5 km/h
Tuulenpuuska: 0 km/h - -
Tuuli:- - SW
Ilmanpaine: 0 hPa 33396.1 hPa -
Sade: 0 mm    
Historical Graphs
 
 
Taulukkotiedot Helmikuu 21, 2017
Aika Lämpötila Kastepiste Ilmanpaine Tuuli Tuulen nopeus Tuulenpuuska Kosteus Sademäärä (tunneittain)
-17.8 °C -17.8 °C 0 hPa Calm     Humidity % 0 mm
00:00 -19.8 °C -20.3 °C 33396.1 hPa Calm     93 % 0 mm
00:15 -19.9 °C -20.4 °C 33396.1 hPa Calm     93 % 0 mm
00:30 -20.1 °C -20.6 °C 33396.1 hPa Calm     93 % 0 mm
00:45 -20.2 °C -20.7 °C 33396.1 hPa Calm     94 % 0 mm
01:00 -20.3 °C -20.7 °C 33409.7 hPa Calm     94 % 0 mm
01:15 -20.4 °C -20.8 °C 33409.7 hPa Calm     94 % 0 mm
01:30 -20.4 °C -20.9 °C 33409.7 hPa Calm   7.7 km/h 94 % 0 mm
01:45 -20.5 °C -21 °C 33396.1 hPa Calm   7.7 km/h 94 % 0 mm
02:00 -20.6 °C -20.9 °C 33409.7 hPa Calm     95 % 0 mm
02:15 -20.6 °C -21 °C 33409.7 hPa Calm     95 % 0 mm
02:30 -20.6 °C -21 °C 33409.7 hPa Calm     95 % 0 mm
02:45 -20.6 °C -21 °C 33409.7 hPa Calm     95 % 0 mm
03:00 -20.7 °C -21.1 °C 33409.7 hPa Calm     95 % 0 mm
03:15 -20.7 °C -21.1 °C 33409.7 hPa Calm     95 % 0 mm
03:30 -20.8 °C -21.2 °C 33409.7 hPa Calm     95 % 0 mm
03:45 -20.9 °C -21.3 °C 33419.8 hPa Calm     95 % 0 mm
04:00 -21.1 °C -21.6 °C 33419.8 hPa Calm     94 % 0 mm
04:15 -21.3 °C -21.7 °C 33419.8 hPa Calm     94 % 0 mm
04:30 -21.4 °C -21.8 °C 33419.8 hPa Calm     94 % 0 mm
04:45 -21.6 °C -22.1 °C 33419.8 hPa Calm     93 % 0 mm
05:00 -21.7 °C -22.2 °C 33433.4 hPa Calm     93 % 0 mm
05:15 -21.8 °C -22.3 °C 33433.4 hPa Calm     93 % 0 mm
05:30 -21.9 °C -22.4 °C 33433.4 hPa Calm     93 % 0 mm
05:45 -22 °C -22.5 °C 33433.4 hPa Calm     93 % 0 mm
06:00 -22.1 °C -22.6 °C 33433.4 hPa Calm     93 % 0 mm
06:15 -22.1 °C -22.7 °C 33433.4 hPa Calm     93 % 0 mm
06:30 -22.2 °C -22.7 °C 33443.5 hPa Calm     93 % 0 mm
06:45 -22.3 °C -22.8 °C 33443.5 hPa Calm     93 % 0 mm
07:00 -22.3 °C -22.9 °C 33443.5 hPa Calm     93 % 0 mm
07:15 -22.2 °C -22.7 °C 33443.5 hPa Calm     94 % 0 mm
07:30 -22.2 °C -22.7 °C 33453.7 hPa Calm     93 % 0 mm
07:45 -22.2 °C -22.7 °C 33453.7 hPa Calm     93 % 0 mm
08:00 -22.3 °C -22.8 °C 33467.2 hPa Calm     93 % 0 mm
08:15 -22.3 °C -22.8 °C 33477.4 hPa Calm     93 % 0 mm
08:30 -22.3 °C -22.7 °C 33490.9 hPa Calm     94 % 0 mm
08:45 -22 °C -22.3 °C 33490.9 hPa Calm     95 % 0 mm
09:00 -21.7 °C -22.1 °C 33501.1 hPa Calm     95 % 0 mm
09:15 -21.4 °C -21.8 °C 33501.1 hPa Calm     95 % 0 mm
09:30 -21.3 °C -21.6 °C 33511.2 hPa Calm     95 % 0 mm
09:45 -21.1 °C -21.5 °C 33511.2 hPa Calm   2.6 km/h 95 % 0 mm
10:00 -20.9 °C -21.3 °C 33524.8 hPa Calm   2.6 km/h 95 % 0 mm
10:15 -20.8 °C -21.2 °C 33524.8 hPa Calm   2.6 km/h 95 % 0 mm
10:30 -20.7 °C -21.2 °C 33534.9 hPa Calm   2.6 km/h 94 % 0 mm
10:45 -20.6 °C -21.2 °C 33545.1 hPa Calm   7.7 km/h 93 % 0 mm
11:00 -20.5 °C -21.1 °C 33545.1 hPa Calm   5.1 km/h 93 % 0 mm
11:15 -20.4 °C -21 °C 33558.6 hPa Calm   7.7 km/h 92 % 0 mm
11:30 -20.2 °C -20.8 °C 33568.8 hPa Calm   5.1 km/h 91 % 0 mm
11:45 -20 °C -20.8 °C 33568.8 hPa NNW 2.6 km/h 10.3 km/h 89 % 0 mm
12:00 -19.9 °C -20.9 °C 33568.8 hPa NNW 2.6 km/h 12.9 km/h 88 % 0 mm
12:15 -19.7 °C -20.8 °C 33582.3 hPa NNW 2.6 km/h 18.2 km/h 86 % 0 mm
12:30 -19.6 °C -20.8 °C 33582.3 hPa NW 2.6 km/h 15.6 km/h 85 % 0 mm
12:45 -19.6 °C -20.8 °C 33582.3 hPa Calm   5.1 km/h 84 % 0 mm
13:00 -19.4 °C -20.9 °C 33592.5 hPa North 2.6 km/h 7.7 km/h 82 % 0 mm
13:15 -19.3 °C -20.9 °C 33602.7 hPa North 2.6 km/h 10.3 km/h 81 % 0 mm
13:30 -19.2 °C -21.1 °C 33602.7 hPa NE 2.6 km/h 10.3 km/h 78 % 0 mm
13:45 -19.1 °C -21.1 °C 33616.2 hPa Calm   7.7 km/h 77 % 0 mm
14:00 -19.1 °C -21.1 °C 33616.2 hPa NW 5.1 km/h 25.9 km/h 76 % 0 mm
14:15 -19.1 °C -21.2 °C 33616.2 hPa North 2.6 km/h 12.9 km/h 76 % 0 mm
14:30 -19.1 °C -21.2 °C 33626.4 hPa NNW 2.6 km/h 12.9 km/h 75 % 0 mm
14:45 -19.1 °C -21.3 °C 33626.4 hPa NNW 2.6 km/h 15.6 km/h 75 % 0 mm
15:00 -19.1 °C -21.3 °C 33639.9 hPa North 2.6 km/h 12.9 km/h 74 % 0 mm
15:15 -19.1 °C -21.3 °C 33639.9 hPa NW 2.6 km/h 10.3 km/h 74 % 0 mm
15:30 -19.2 °C -21.3 °C 33650.1 hPa NW 5.1 km/h 20.8 km/h 75 % 0 mm
15:45 -19.3 °C -21.1 °C 33650.1 hPa Calm   7.7 km/h 78 % 0 mm
16:00 -19.1 °C -20.9 °C 33650.1 hPa Calm   7.7 km/h 78 % 0 mm
16:15 -19.3 °C -21.3 °C 33660.2 hPa NNW 2.6 km/h 7.7 km/h 77 % 0 mm
16:30 -19.6 °C -21.4 °C 33660.2 hPa Calm   5.1 km/h 78 % 0 mm
16:45 -19.7 °C -21.4 °C 33673.8 hPa Calm   5.1 km/h 80 % 0 mm
17:00 -19.8 °C -21.4 °C 33673.8 hPa Calm     81 % 0 mm
17:15 -19.9 °C -21.4 °C 33683.9 hPa Calm     82 % 0 mm
17:30 -20.1 °C -21.4 °C 33694.1 hPa Calm   2.6 km/h 83 % 0 mm
17:45 -20.1 °C -21.5 °C 33694.1 hPa Calm     83 % 0 mm
18:00 -20.2 °C -21.5 °C 33694.1 hPa Calm     83 % 0 mm
18:15 -20.2 °C -21.5 °C 33694.1 hPa Calm   2.6 km/h 84 % 0 mm
18:30 -20.4 °C -21.7 °C 33707.6 hPa Calm     84 % 0 mm
18:45 -20.5 °C -21.7 °C 33707.6 hPa Calm     85 % 0 mm
19:00 -20.7 °C -21.9 °C 33707.6 hPa Calm     85 % 0 mm
19:15 -21.1 °C -22.2 °C 33717.8 hPa Calm     86 % 0 mm
19:30 -21.3 °C -22.2 °C 33717.8 hPa Calm     88 % 0 mm
19:45 -21.6 °C -22.4 °C 33717.8 hPa Calm     89 % 0 mm
20:00 -21.7 °C -22.4 °C 33731.3 hPa Calm     90 % 0 mm
20:15 -21.8 °C -22.5 °C 33717.8 hPa Calm     90 % 0 mm
20:30 -21.9 °C -22.6 °C 33731.3 hPa Calm   2.6 km/h 90 % 0 mm
20:45 -22.1 °C -22.7 °C 33731.3 hPa Calm     91 % 0 mm
21:00 -22.2 °C -22.8 °C 33741.5 hPa Calm     91 % 0 mm
21:15 -22.3 °C -22.9 °C 33741.5 hPa Calm     91 % 0 mm
21:30 -22.4 °C -23.1 °C 33731.3 hPa Calm     91 % 0 mm
21:45 -22.6 °C -23.3 °C 33731.3 hPa Calm     91 % 0 mm
22:00 -22.7 °C -23.4 °C 33731.3 hPa Calm     91 % 0 mm
22:15 -22.9 °C -23.6 °C 33731.3 hPa Calm     91 % 0 mm
22:30 -23 °C -23.7 °C 33741.5 hPa Calm     91 % 0 mm
22:45 -23.1 °C -23.7 °C 33741.5 hPa Calm     92 % 0 mm
23:00 -23.2 °C -23.7 °C 33741.5 hPa Calm     92 % 0 mm
23:15 -23.2 °C -23.8 °C 33731.3 hPa Calm     92 % 0 mm
23:30 -23.4 °C -24 °C 33731.3 hPa Calm     91 % 0 mm
23:45 -23.5 °C -24.2 °C 33741.5 hPa Calm     91 % 0 mm
Esan sääasema
Terveisin Weather Underground - 2.75 mb

Alkuperäinen skripti  Jim McMurry - jmcmurry@mwt.net Sovitettu myös templatelle  Wim van der Kuil - Leuven-Template.eu

Laitteet joita käytämme:

Sääasema
Davis VP2

Sääasemaohjelma
Cumulus

Sääaseman tietokone
Asus EeePC

Palveluntarjoaja
Suncomet

Davis VP2

Cumulus

Asus EeePC

Suncomet